PWSweather.com
Personal Weather Stations
Station Observations
KCOBLACK1
Chalet Park, Black Hawk, CO 80422

Chalet ParkBlack Hawk, CO 80422

Lat: 39.8294, Lon: -105.48

Elevation: 9370

Station Type: Vantage Pro2

http://www.oscaranddeb.com/weather

Latest ConditionsUpdated 2:20:06 PM MST Monday, Nov 24, 2014
Currently Today's Max Today's Min Today's Average
Temperature 18.7°F-7.4°C 19.3°F-7.1°C 11.6°F-11.3°C 14.5°F-9.7°C
Dew Point 7.5°F-13.6°C 10.9°F-11.7°C 1.6°F-16.9°C 6.9°F-13.9°C
Winds 8.0 mph NW12.9 kmh NW 40.0 mph NW64.4 kmh NW - 10.4 mph 16.7 kmh
Wind Gusts 23.0 mph37.0 kmh 48.0 mph77.2 kmh - -
Humidity 61% 84% 59% 72%
Pressure 30.26 in1024.7 mb 30.26 in1024.7 mb 29.93 in1013.5 mb -
Hour Temp Dew Point Humidity Winds Wind Gusts Pressure Precip Precip Rate Daily Precip Total
02:20 PM 18.7°F-7.4°C 7.5°F-13.6°C 61% 8.0 mph NW12.9 kmh NW 23.0 mph37.0 kmh 30.26 in1024.7 mb 0.00 in0.0 mm 0.00 in/hr0.0 mm/hr 0.00 in0.0 mm
02:15 PM 18.0°F-7.8°C 8.5°F-13.1°C 66% 8.0 mph WNW12.9 kmh WNW 18.0 mph29.0 kmh 30.26 in1024.7 mb 0.00 in0.0 mm 0.00 in/hr0.0 mm/hr 0.00 in0.0 mm
02:10 PM 17.5°F-8.1°C 9.0°F-12.8°C 69% 9.0 mph NW14.5 kmh NW 20.0 mph32.2 kmh 30.26 in1024.7 mb 0.00 in0.0 mm 0.00 in/hr0.0 mm/hr 0.00 in0.0 mm
02:05 PM 17.1°F-8.3°C 9.6°F-12.4°C 72% 3.0 mph W4.8 kmh W 13.0 mph20.9 kmh 30.25 in1024.4 mb 0.00 in0.0 mm 0.00 in/hr0.0 mm/hr 0.00 in0.0 mm
02:00 PM 16.2°F-8.8°C 9.6°F-12.4°C 75% 3.0 mph WNW4.8 kmh WNW 11.0 mph17.7 kmh 30.25 in1024.4 mb 0.00 in0.0 mm 0.00 in/hr0.0 mm/hr 0.00 in0.0 mm
01:50 PM 15.2°F-9.3°C 10.4°F-12.0°C 81% 6.0 mph NW9.7 kmh NW 12.0 mph19.3 kmh 30.24 in1024.0 mb 0.00 in0.0 mm 0.00 in/hr0.0 mm/hr 0.00 in0.0 mm
01:45 PM 15.1°F-9.4°C 10.6°F-11.9°C 82% 5.0 mph WNW8.0 kmh WNW 11.0 mph17.7 kmh 30.24 in1024.0 mb 0.00 in0.0 mm 0.00 in/hr0.0 mm/hr 0.00 in0.0 mm
01:40 PM 15.5°F-9.2°C 10.7°F-11.8°C 81% 3.0 mph N4.8 kmh N 11.0 mph17.7 kmh 30.25 in1024.4 mb 0.00 in0.0 mm 0.00 in/hr0.0 mm/hr 0.00 in0.0 mm
01:35 PM 16.0°F-8.9°C 10.0°F-12.2°C 77% 5.0 mph NW8.0 kmh NW 14.0 mph22.5 kmh 30.25 in1024.4 mb 0.00 in0.0 mm 0.00 in/hr0.0 mm/hr 0.00 in0.0 mm
01:30 PM 16.4°F-8.7°C 8.9°F-12.8°C 72% 4.0 mph WSW6.4 kmh WSW 12.0 mph19.3 kmh 30.24 in1024.0 mb 0.00 in0.0 mm 0.00 in/hr0.0 mm/hr 0.00 in0.0 mm
01:25 PM 16.9°F-8.4°C 8.8°F-12.9°C 70% 3.0 mph NW4.8 kmh NW 17.0 mph27.4 kmh 30.24 in1024.0 mb 0.00 in0.0 mm 0.00 in/hr0.0 mm/hr 0.00 in0.0 mm
01:20 PM 18.0°F-7.8°C 7.9°F-13.4°C 64% 10.0 mph NW16.1 kmh NW 18.0 mph29.0 kmh 30.23 in1023.7 mb 0.00 in0.0 mm 0.00 in/hr0.0 mm/hr 0.00 in0.0 mm
01:15 PM 18.4°F-7.6°C 6.8°F-14.0°C 60% 11.0 mph W17.7 kmh W 19.0 mph30.6 kmh 30.22 in1023.4 mb 0.00 in0.0 mm 0.00 in/hr0.0 mm/hr 0.00 in0.0 mm
01:10 PM 18.9°F-7.3°C 7.7°F-13.5°C 61% 12.0 mph NNW19.3 kmh NNW 22.0 mph35.4 kmh 30.22 in1023.4 mb 0.00 in0.0 mm 0.00 in/hr0.0 mm/hr 0.00 in0.0 mm
01:05 PM 19.3°F-7.1°C 8.0°F-13.3°C 61% 8.0 mph NW12.9 kmh NW 19.0 mph30.6 kmh 30.22 in1023.4 mb 0.00 in0.0 mm 0.00 in/hr0.0 mm/hr 0.00 in0.0 mm
01:00 PM 18.3°F-7.6°C 9.2°F-12.7°C 67% 11.0 mph WSW17.7 kmh WSW 20.0 mph32.2 kmh 30.21 in1023.0 mb 0.00 in0.0 mm 0.00 in/hr0.0 mm/hr 0.00 in0.0 mm
12:55 PM 17.7°F-7.9°C 10.5°F-11.9°C 73% 8.0 mph NW12.9 kmh NW 19.0 mph30.6 kmh 30.21 in1023.0 mb 0.00 in0.0 mm 0.00 in/hr0.0 mm/hr 0.00 in0.0 mm
12:50 PM 17.6°F-8.0°C 10.7°F-11.8°C 74% 6.0 mph SW9.7 kmh SW 11.0 mph17.7 kmh 30.22 in1023.4 mb 0.00 in0.0 mm 0.00 in/hr0.0 mm/hr 0.00 in0.0 mm
12:45 PM 17.8°F-7.9°C 10.9°F-11.7°C 74% 3.0 mph WSW4.8 kmh WSW 8.0 mph12.9 kmh 30.21 in1023.0 mb 0.00 in0.0 mm 0.00 in/hr0.0 mm/hr 0.00 in0.0 mm
12:40 PM 17.4°F-8.1°C 9.3°F-12.6°C 70% 3.0 mph W4.8 kmh W 13.0 mph20.9 kmh 30.22 in1023.4 mb 0.00 in0.0 mm 0.00 in/hr0.0 mm/hr 0.00 in0.0 mm
12:35 PM 17.5°F-8.1°C 8.4°F-13.1°C 67% 9.0 mph WNW14.5 kmh WNW 17.0 mph27.4 kmh 30.21 in1023.0 mb 0.00 in0.0 mm 0.00 in/hr0.0 mm/hr 0.00 in0.0 mm
12:30 PM 17.9°F-7.8°C 7.8°F-13.4°C 64% 3.0 mph SSW4.8 kmh SSW 18.0 mph29.0 kmh 30.21 in1023.0 mb 0.00 in0.0 mm 0.00 in/hr0.0 mm/hr 0.00 in0.0 mm
12:25 PM 18.0°F-7.8°C 6.8°F-14.0°C 61% 3.0 mph W4.8 kmh W 21.0 mph33.8 kmh 30.21 in1023.0 mb 0.00 in0.0 mm 0.00 in/hr0.0 mm/hr 0.00 in0.0 mm
12:20 PM 18.6°F-7.4°C 6.6°F-14.1°C 59% 11.0 mph SW17.7 kmh SW 22.0 mph35.4 kmh 30.20 in1022.7 mb 0.00 in0.0 mm 0.00 in/hr0.0 mm/hr 0.00 in0.0 mm
12:15 PM 18.9°F-7.3°C 7.7°F-13.5°C 61% 4.0 mph W6.4 kmh W 15.0 mph24.1 kmh 30.20 in1022.7 mb 0.00 in0.0 mm 0.00 in/hr0.0 mm/hr 0.00 in0.0 mm
12:10 PM 18.7°F-7.4°C 7.1°F-13.8°C 60% 14.0 mph W22.5 kmh W 19.0 mph30.6 kmh 30.20 in1022.7 mb 0.00 in0.0 mm 0.00 in/hr0.0 mm/hr 0.00 in0.0 mm
12:05 PM 18.8°F-7.3°C 6.8°F-14.0°C 59% 10.0 mph WNW16.1 kmh WNW 19.0 mph30.6 kmh 30.20 in1022.7 mb 0.00 in0.0 mm 0.00 in/hr0.0 mm/hr 0.00 in0.0 mm
12:00 PM 18.6°F-7.4°C 7.0°F-13.9°C 60% 11.0 mph NW17.7 kmh NW 15.0 mph24.1 kmh 30.20 in1022.7 mb 0.00 in0.0 mm 0.00 in/hr0.0 mm/hr 0.00 in0.0 mm
11:55 AM 18.5°F-7.5°C 8.0°F-13.3°C 63% 8.0 mph WSW12.9 kmh WSW 17.0 mph27.4 kmh 30.20 in1022.7 mb 0.00 in0.0 mm 0.00 in/hr0.0 mm/hr 0.00 in0.0 mm
11:50 AM 18.2°F-7.7°C 7.7°F-13.5°C 63% 10.0 mph NNW16.1 kmh NNW 20.0 mph32.2 kmh 30.20 in1022.7 mb 0.00 in0.0 mm 0.00 in/hr0.0 mm/hr 0.00 in0.0 mm
11:45 AM 18.1°F-7.7°C 8.0°F-13.3°C 64% 15.0 mph NW24.1 kmh NW 22.0 mph35.4 kmh 30.20 in1022.7 mb 0.00 in0.0 mm 0.00 in/hr0.0 mm/hr 0.00 in0.0 mm
11:40 AM 18.2°F-7.7°C 8.4°F-13.1°C 65% 10.0 mph W16.1 kmh W 15.0 mph24.1 kmh 30.19 in1022.4 mb 0.00 in0.0 mm 0.00 in/hr0.0 mm/hr 0.00 in0.0 mm
11:35 AM 18.0°F-7.8°C 8.5°F-13.1°C 66% 10.0 mph NW16.1 kmh NW 14.0 mph22.5 kmh 30.20 in1022.7 mb 0.00 in0.0 mm 0.00 in/hr0.0 mm/hr 0.00 in0.0 mm
11:30 AM 17.7°F-7.9°C 8.6°F-13.0°C 67% 4.0 mph W6.4 kmh W 13.0 mph20.9 kmh 30.19 in1022.4 mb 0.00 in0.0 mm 0.00 in/hr0.0 mm/hr 0.00 in0.0 mm
11:25 AM 18.0°F-7.8°C 8.5°F-13.1°C 66% 4.0 mph WSW6.4 kmh WSW 15.0 mph24.1 kmh 30.20 in1022.7 mb 0.00 in0.0 mm 0.00 in/hr0.0 mm/hr 0.00 in0.0 mm
11:20 AM 18.5°F-7.5°C 9.0°F-12.8°C 66% 2.0 mph NW3.2 kmh NW 14.0 mph22.5 kmh 30.19 in1022.4 mb 0.00 in0.0 mm 0.00 in/hr0.0 mm/hr 0.00 in0.0 mm
11:15 AM 17.5°F-8.1°C 8.7°F-12.9°C 68% 9.0 mph W14.5 kmh W 13.0 mph20.9 kmh 30.19 in1022.4 mb 0.00 in0.0 mm 0.00 in/hr0.0 mm/hr 0.00 in0.0 mm
11:10 AM 17.0°F-8.3°C 9.5°F-12.5°C 72% 9.0 mph W14.5 kmh W 14.0 mph22.5 kmh 30.19 in1022.4 mb 0.00 in0.0 mm 0.00 in/hr0.0 mm/hr 0.00 in0.0 mm
11:05 AM 16.7°F-8.5°C 10.1°F-12.2°C 75% 4.0 mph W6.4 kmh W 12.0 mph19.3 kmh 30.20 in1022.7 mb 0.00 in0.0 mm 0.00 in/hr0.0 mm/hr 0.00 in0.0 mm
11:00 AM 16.8°F-8.4°C 10.5°F-11.9°C 76% 8.0 mph W12.9 kmh W 13.0 mph20.9 kmh 30.20 in1022.7 mb 0.00 in0.0 mm 0.00 in/hr0.0 mm/hr 0.00 in0.0 mm
10:55 AM 16.9°F-8.4°C 10.6°F-11.9°C 76% 2.0 mph WNW3.2 kmh WNW 9.0 mph14.5 kmh 30.20 in1022.7 mb 0.00 in0.0 mm 0.00 in/hr0.0 mm/hr 0.00 in0.0 mm
10:50 AM 16.7°F-8.5°C 10.4°F-12.0°C 76% Calm Calm 9.0 mph14.5 kmh 30.20 in1022.7 mb 0.00 in0.0 mm 0.00 in/hr0.0 mm/hr 0.00 in0.0 mm
10:45 AM 16.8°F-8.4°C 9.9°F-12.3°C 74% 6.0 mph SW9.7 kmh SW 11.0 mph17.7 kmh 30.20 in1022.7 mb 0.00 in0.0 mm 0.00 in/hr0.0 mm/hr 0.00 in0.0 mm
10:40 AM 17.5°F-8.1°C 9.4°F-12.6°C 70% 11.0 mph W17.7 kmh W 13.0 mph20.9 kmh 30.19 in1022.4 mb 0.00 in0.0 mm 0.00 in/hr0.0 mm/hr 0.00 in0.0 mm
10:35 AM 17.3°F-8.2°C 9.2°F-12.7°C 70% 9.0 mph WNW14.5 kmh WNW 17.0 mph27.4 kmh 30.19 in1022.4 mb 0.00 in0.0 mm 0.00 in/hr0.0 mm/hr 0.00 in0.0 mm
10:30 AM 17.0°F-8.3°C 9.5°F-12.5°C 72% 3.0 mph WSW4.8 kmh WSW 16.0 mph25.7 kmh 30.19 in1022.4 mb 0.00 in0.0 mm 0.00 in/hr0.0 mm/hr 0.00 in0.0 mm
10:25 AM 16.9°F-8.4°C 9.7°F-12.4°C 73% 10.0 mph W16.1 kmh W 14.0 mph22.5 kmh 30.19 in1022.4 mb 0.00 in0.0 mm 0.00 in/hr0.0 mm/hr 0.00 in0.0 mm
10:20 AM 17.0°F-8.3°C 9.5°F-12.5°C 72% 14.0 mph NW22.5 kmh NW 18.0 mph29.0 kmh 30.19 in1022.4 mb 0.00 in0.0 mm 0.00 in/hr0.0 mm/hr 0.00 in0.0 mm
10:15 AM 16.6°F-8.6°C 9.4°F-12.6°C 73% 4.0 mph NW6.4 kmh NW 15.0 mph24.1 kmh 30.19 in1022.4 mb 0.00 in0.0 mm 0.00 in/hr0.0 mm/hr 0.00 in0.0 mm
10:10 AM 16.5°F-8.6°C 8.7°F-12.9°C 71% 4.0 mph NW6.4 kmh NW 14.0 mph22.5 kmh 30.20 in1022.7 mb 0.00 in0.0 mm 0.00 in/hr0.0 mm/hr 0.00 in0.0 mm
10:05 AM 16.4°F-8.7°C 9.8°F-12.3°C 75% 3.0 mph WNW4.8 kmh WNW 15.0 mph24.1 kmh 30.20 in1022.7 mb 0.00 in0.0 mm 0.00 in/hr0.0 mm/hr 0.00 in0.0 mm
10:00 AM 16.4°F-8.7°C 8.9°F-12.8°C 72% 8.0 mph WSW12.9 kmh WSW 14.0 mph22.5 kmh 30.19 in1022.4 mb 0.00 in0.0 mm 0.00 in/hr0.0 mm/hr 0.00 in0.0 mm
09:55 AM 16.5°F-8.6°C 9.0°F-12.8°C 72% 4.0 mph WNW6.4 kmh WNW 13.0 mph20.9 kmh 30.19 in1022.4 mb 0.00 in0.0 mm 0.00 in/hr0.0 mm/hr 0.00 in0.0 mm
09:50 AM 16.4°F-8.7°C 8.9°F-12.8°C 72% 8.0 mph NW12.9 kmh NW 14.0 mph22.5 kmh 30.19 in1022.4 mb 0.00 in0.0 mm 0.00 in/hr0.0 mm/hr 0.00 in0.0 mm
09:45 AM 16.0°F-8.9°C 8.5°F-13.1°C 72% 3.0 mph NW4.8 kmh NW 13.0 mph20.9 kmh 30.19 in1022.4 mb 0.00 in0.0 mm 0.00 in/hr0.0 mm/hr 0.00 in0.0 mm
09:40 AM 15.7°F-9.1°C 9.2°F-12.7°C 75% 8.0 mph WNW12.9 kmh WNW 14.0 mph22.5 kmh 30.18 in1022.0 mb 0.00 in0.0 mm 0.00 in/hr0.0 mm/hr 0.00 in0.0 mm
09:35 AM 15.5°F-9.2°C 9.0°F-12.8°C 75% 2.0 mph W3.2 kmh W 16.0 mph25.7 kmh 30.18 in1022.0 mb 0.00 in0.0 mm 0.00 in/hr0.0 mm/hr 0.00 in0.0 mm
09:30 AM 15.4°F-9.2°C 9.2°F-12.7°C 76% 4.0 mph SW6.4 kmh SW 15.0 mph24.1 kmh 30.17 in1021.7 mb 0.00 in0.0 mm 0.00 in/hr0.0 mm/hr 0.00 in0.0 mm
09:25 AM 15.3°F-9.3°C 9.4°F-12.6°C 77% 4.0 mph W6.4 kmh W 16.0 mph25.7 kmh 30.17 in1021.7 mb 0.00 in0.0 mm 0.00 in/hr0.0 mm/hr 0.00 in0.0 mm
09:20 AM 15.2°F-9.3°C 9.0°F-12.8°C 76% 6.0 mph W9.7 kmh W 14.0 mph22.5 kmh 30.17 in1021.7 mb 0.00 in0.0 mm 0.00 in/hr0.0 mm/hr 0.00 in0.0 mm
09:15 AM 15.3°F-9.3°C 8.8°F-12.9°C 75% 9.0 mph NW14.5 kmh NW 16.0 mph25.7 kmh 30.16 in1021.3 mb 0.00 in0.0 mm 0.00 in/hr0.0 mm/hr 0.00 in0.0 mm
09:10 AM 15.5°F-9.2°C 9.3°F-12.6°C 76% 10.0 mph NW16.1 kmh NW 18.0 mph29.0 kmh 30.16 in1021.3 mb 0.00 in0.0 mm 0.00 in/hr0.0 mm/hr 0.00 in0.0 mm
09:05 AM 15.4°F-9.2°C 9.2°F-12.7°C 76% 7.0 mph W11.3 kmh W 20.0 mph32.2 kmh 30.16 in1021.3 mb 0.00 in0.0 mm 0.00 in/hr0.0 mm/hr 0.00 in0.0 mm
09:00 AM 15.2°F-9.3°C 9.0°F-12.8°C 76% 7.0 mph W11.3 kmh W 19.0 mph30.6 kmh 30.16 in1021.3 mb 0.00 in0.0 mm 0.00 in/hr0.0 mm/hr 0.00 in0.0 mm
08:55 AM 15.0°F-9.4°C 8.8°F-12.9°C 76% 6.0 mph W9.7 kmh W 18.0 mph29.0 kmh 30.15 in1021.0 mb 0.00 in0.0 mm 0.00 in/hr0.0 mm/hr 0.00 in0.0 mm
08:50 AM 14.8°F-9.6°C 8.9°F-12.8°C 77% 4.0 mph WSW6.4 kmh WSW 20.0 mph32.2 kmh 30.15 in1021.0 mb 0.00 in0.0 mm 0.00 in/hr0.0 mm/hr 0.00 in0.0 mm
08:45 AM 14.9°F-9.5°C 9.0°F-12.8°C 77% 4.0 mph W6.4 kmh W 15.0 mph24.1 kmh 30.14 in1020.7 mb 0.00 in0.0 mm 0.00 in/hr0.0 mm/hr 0.00 in0.0 mm
08:40 AM 15.1°F-9.4°C 8.3°F-13.2°C 74% 8.0 mph WNW12.9 kmh WNW 23.0 mph37.0 kmh 30.14 in1020.7 mb 0.00 in0.0 mm 0.00 in/hr0.0 mm/hr 0.00 in0.0 mm
08:35 AM 15.4°F-9.2°C 8.6°F-13.0°C 74% 2.0 mph W3.2 kmh W 24.0 mph38.6 kmh 30.13 in1020.3 mb 0.00 in0.0 mm 0.00 in/hr0.0 mm/hr 0.00 in0.0 mm
08:30 AM 15.1°F-9.4°C 8.3°F-13.2°C 74% 9.0 mph W14.5 kmh W 19.0 mph30.6 kmh 30.12 in1020.0 mb 0.00 in0.0 mm 0.00 in/hr0.0 mm/hr 0.00 in0.0 mm
08:25 AM 15.0°F-9.4°C 8.2°F-13.2°C 74% 3.0 mph W4.8 kmh W 21.0 mph33.8 kmh 30.12 in1020.0 mb 0.00 in0.0 mm 0.00 in/hr0.0 mm/hr 0.00 in0.0 mm
08:20 AM 14.9°F-9.5°C 8.4°F-13.1°C 75% 18.0 mph SW29.0 kmh SW 21.0 mph33.8 kmh 30.11 in1019.6 mb 0.00 in0.0 mm 0.00 in/hr0.0 mm/hr 0.00 in0.0 mm
08:15 AM 14.7°F-9.6°C 7.9°F-13.4°C 74% 5.0 mph WSW8.0 kmh WSW 23.0 mph37.0 kmh 30.10 in1019.3 mb 0.00 in0.0 mm 0.00 in/hr0.0 mm/hr 0.00 in0.0 mm
08:10 AM 14.3°F-9.8°C 8.1°F-13.3°C 76% 17.0 mph WSW27.4 kmh WSW 18.0 mph29.0 kmh 30.10 in1019.3 mb 0.00 in0.0 mm 0.00 in/hr0.0 mm/hr 0.00 in0.0 mm
08:05 AM 14.2°F-9.9°C 7.7°F-13.5°C 75% 7.0 mph W11.3 kmh W 19.0 mph30.6 kmh 30.10 in1019.3 mb 0.00 in0.0 mm 0.00 in/hr0.0 mm/hr 0.00 in0.0 mm
08:00 AM 14.1°F-9.9°C 7.6°F-13.6°C 75% 9.0 mph WSW14.5 kmh WSW 23.0 mph37.0 kmh 30.09 in1019.0 mb 0.00 in0.0 mm 0.00 in/hr0.0 mm/hr 0.00 in0.0 mm
07:55 AM 13.9°F-10.1°C 7.7°F-13.5°C 76% 11.0 mph WNW17.7 kmh WNW 20.0 mph32.2 kmh 30.09 in1019.0 mb 0.00 in0.0 mm 0.00 in/hr0.0 mm/hr 0.00 in0.0 mm
07:50 AM 13.6°F-10.2°C 7.7°F-13.5°C 77% 3.0 mph WSW4.8 kmh WSW 22.0 mph35.4 kmh 30.09 in1019.0 mb 0.00 in0.0 mm 0.00 in/hr0.0 mm/hr 0.00 in0.0 mm
07:45 AM 13.5°F-10.3°C 8.2°F-13.2°C 79% 8.0 mph WSW12.9 kmh WSW 20.0 mph32.2 kmh 30.09 in1019.0 mb 0.00 in0.0 mm 0.00 in/hr0.0 mm/hr 0.00 in0.0 mm
07:40 AM 13.4°F-10.3°C 8.1°F-13.3°C 79% 13.0 mph WNW20.9 kmh WNW 19.0 mph30.6 kmh 30.09 in1019.0 mb 0.00 in0.0 mm 0.00 in/hr0.0 mm/hr 0.00 in0.0 mm
07:35 AM 13.5°F-10.3°C 7.9°F-13.4°C 78% 12.0 mph NW19.3 kmh NW 19.0 mph30.6 kmh 30.08 in1018.6 mb 0.00 in0.0 mm 0.00 in/hr0.0 mm/hr 0.00 in0.0 mm
07:30 AM 13.4°F-10.3°C 7.8°F-13.4°C 78% 6.0 mph WSW9.7 kmh WSW 24.0 mph38.6 kmh 30.08 in1018.6 mb 0.00 in0.0 mm 0.00 in/hr0.0 mm/hr 0.00 in0.0 mm
07:25 AM 13.2°F-10.4°C 8.2°F-13.2°C 80% 6.0 mph W9.7 kmh W 21.0 mph33.8 kmh 30.08 in1018.6 mb 0.00 in0.0 mm 0.00 in/hr0.0 mm/hr 0.00 in0.0 mm
07:20 AM 13.1°F-10.5°C 8.3°F-13.2°C 81% 19.0 mph WNW30.6 kmh WNW 20.0 mph32.2 kmh 30.08 in1018.6 mb 0.00 in0.0 mm 0.00 in/hr0.0 mm/hr 0.00 in0.0 mm
07:15 AM 13.1°F-10.5°C 8.1°F-13.3°C 80% 12.0 mph W19.3 kmh W 26.0 mph41.8 kmh 30.08 in1018.6 mb 0.00 in0.0 mm 0.00 in/hr0.0 mm/hr 0.00 in0.0 mm
07:10 AM 12.8°F-10.7°C 8.0°F-13.3°C 81% 3.0 mph W4.8 kmh W 19.0 mph30.6 kmh 30.08 in1018.6 mb 0.00 in0.0 mm 0.00 in/hr0.0 mm/hr 0.00 in0.0 mm
07:05 AM 12.8°F-10.7°C 8.0°F-13.3°C 81% 6.0 mph W9.7 kmh W 17.0 mph27.4 kmh 30.08 in1018.6 mb 0.00 in0.0 mm 0.00 in/hr0.0 mm/hr 0.00 in0.0 mm
07:00 AM 12.7°F-10.7°C 7.9°F-13.4°C 81% 15.0 mph NW24.1 kmh NW 20.0 mph32.2 kmh 30.09 in1019.0 mb 0.00 in0.0 mm 0.00 in/hr0.0 mm/hr 0.00 in0.0 mm
06:55 AM 12.8°F-10.7°C 8.0°F-13.3°C 81% 15.0 mph WSW24.1 kmh WSW 21.0 mph33.8 kmh 30.08 in1018.6 mb 0.00 in0.0 mm 0.00 in/hr0.0 mm/hr 0.00 in0.0 mm
06:50 AM 12.6°F-10.8°C 7.8°F-13.4°C 81% 5.0 mph WSW8.0 kmh WSW 16.0 mph25.7 kmh 30.08 in1018.6 mb 0.00 in0.0 mm 0.00 in/hr0.0 mm/hr 0.00 in0.0 mm
06:45 AM 12.7°F-10.7°C 7.7°F-13.5°C 80% 7.0 mph WNW11.3 kmh WNW 19.0 mph30.6 kmh 30.08 in1018.6 mb 0.00 in0.0 mm 0.00 in/hr0.0 mm/hr 0.00 in0.0 mm
06:40 AM 12.7°F-10.7°C 7.9°F-13.4°C 81% 5.0 mph SW8.0 kmh SW 21.0 mph33.8 kmh 30.08 in1018.6 mb 0.00 in0.0 mm 0.00 in/hr0.0 mm/hr 0.00 in0.0 mm
06:35 AM 12.6°F-10.8°C 7.8°F-13.4°C 81% 9.0 mph WSW14.5 kmh WSW 20.0 mph32.2 kmh 30.08 in1018.6 mb 0.00 in0.0 mm 0.00 in/hr0.0 mm/hr 0.00 in0.0 mm
06:30 AM 12.6°F-10.8°C 7.8°F-13.4°C 81% 4.0 mph WNW6.4 kmh WNW 15.0 mph24.1 kmh 30.08 in1018.6 mb 0.00 in0.0 mm 0.00 in/hr0.0 mm/hr 0.00 in0.0 mm
06:25 AM 12.8°F-10.7°C 7.8°F-13.4°C 80% 8.0 mph WSW12.9 kmh WSW 19.0 mph30.6 kmh 30.08 in1018.6 mb 0.00 in0.0 mm 0.00 in/hr0.0 mm/hr 0.00 in0.0 mm
06:20 AM 12.8°F-10.7°C 7.5°F-13.6°C 79% 7.0 mph WNW11.3 kmh WNW 25.0 mph40.2 kmh 30.08 in1018.6 mb 0.00 in0.0 mm 0.00 in/hr0.0 mm/hr 0.00 in0.0 mm
06:15 AM 12.8°F-10.7°C 7.8°F-13.4°C 80% 8.0 mph W12.9 kmh W 20.0 mph32.2 kmh 30.08 in1018.6 mb 0.00 in0.0 mm 0.00 in/hr0.0 mm/hr 0.00 in0.0 mm
06:10 AM 12.8°F-10.7°C 7.8°F-13.4°C 80% 2.0 mph NW3.2 kmh NW 16.0 mph25.7 kmh 30.07 in1018.3 mb 0.00 in0.0 mm 0.00 in/hr0.0 mm/hr 0.00 in0.0 mm
06:05 AM 12.8°F-10.7°C 7.8°F-13.4°C 80% 6.0 mph W9.7 kmh W 18.0 mph29.0 kmh 30.07 in1018.3 mb 0.00 in0.0 mm 0.00 in/hr0.0 mm/hr 0.00 in0.0 mm
06:00 AM 12.8°F-10.7°C 7.8°F-13.4°C 80% 15.0 mph NW24.1 kmh NW 19.0 mph30.6 kmh 30.07 in1018.3 mb 0.00 in0.0 mm 0.00 in/hr0.0 mm/hr 0.00 in0.0 mm
05:55 AM 12.7°F-10.7°C 7.7°F-13.5°C 80% 6.0 mph WSW9.7 kmh WSW 21.0 mph33.8 kmh 30.06 in1017.9 mb 0.00 in0.0 mm 0.00 in/hr0.0 mm/hr 0.00 in0.0 mm
05:50 AM 12.8°F-10.7°C 8.0°F-13.3°C 81% 8.0 mph WSW12.9 kmh WSW 15.0 mph24.1 kmh 30.06 in1017.9 mb 0.00 in0.0 mm 0.00 in/hr0.0 mm/hr 0.00 in0.0 mm
05:45 AM 12.8°F-10.7°C 7.8°F-13.4°C 80% 13.0 mph SW20.9 kmh SW 19.0 mph30.6 kmh 30.06 in1017.9 mb 0.00 in0.0 mm 0.00 in/hr0.0 mm/hr 0.00 in0.0 mm
05:40 AM 13.1°F-10.5°C 7.5°F-13.6°C 78% 10.0 mph W16.1 kmh W 24.0 mph38.6 kmh 30.06 in1017.9 mb 0.00 in0.0 mm 0.00 in/hr0.0 mm/hr 0.00 in0.0 mm
05:35 AM 12.9°F-10.6°C 7.3°F-13.7°C 78% 10.0 mph SW16.1 kmh SW 17.0 mph27.4 kmh 30.06 in1017.9 mb 0.00 in0.0 mm 0.00 in/hr0.0 mm/hr 0.00 in0.0 mm
05:30 AM 12.8°F-10.7°C 7.5°F-13.6°C 79% 9.0 mph WSW14.5 kmh WSW 19.0 mph30.6 kmh 30.05 in1017.6 mb 0.00 in0.0 mm 0.00 in/hr0.0 mm/hr 0.00 in0.0 mm
05:25 AM 12.7°F-10.7°C 7.7°F-13.5°C 80% 11.0 mph W17.7 kmh W 23.0 mph37.0 kmh 30.06 in1017.9 mb 0.00 in0.0 mm 0.00 in/hr0.0 mm/hr 0.00 in0.0 mm
05:20 AM 12.5°F-10.8°C 8.0°F-13.3°C 82% 9.0 mph W14.5 kmh W 17.0 mph27.4 kmh 30.06 in1017.9 mb 0.00 in0.0 mm 0.00 in/hr0.0 mm/hr 0.00 in0.0 mm
05:15 AM 12.3°F-10.9°C 8.1°F-13.3°C 83% 12.0 mph WSW19.3 kmh WSW 17.0 mph27.4 kmh 30.05 in1017.6 mb 0.00 in0.0 mm 0.00 in/hr0.0 mm/hr 0.00 in0.0 mm
05:10 AM 12.3°F-10.9°C 8.1°F-13.3°C 83% 12.0 mph NW19.3 kmh NW 19.0 mph30.6 kmh 30.05 in1017.6 mb 0.00 in0.0 mm 0.00 in/hr0.0 mm/hr 0.00 in0.0 mm
05:05 AM 12.2°F-11.0°C 8.0°F-13.3°C 83% 10.0 mph W16.1 kmh W 17.0 mph27.4 kmh 30.05 in1017.6 mb 0.00 in0.0 mm 0.00 in/hr0.0 mm/hr 0.00 in0.0 mm
05:00 AM 12.1°F-11.1°C 8.2°F-13.2°C 84% 9.0 mph SW14.5 kmh SW 15.0 mph24.1 kmh 30.05 in1017.6 mb 0.00 in0.0 mm 0.00 in/hr0.0 mm/hr 0.00 in0.0 mm
04:55 AM 12.2°F-11.0°C 7.7°F-13.5°C 82% 5.0 mph SW8.0 kmh SW 16.0 mph25.7 kmh 30.05 in1017.6 mb 0.00 in0.0 mm 0.00 in/hr0.0 mm/hr 0.00 in0.0 mm
04:50 AM 12.3°F-10.9°C 7.8°F-13.4°C 82% 3.0 mph SW4.8 kmh SW 19.0 mph30.6 kmh 30.05 in1017.6 mb 0.00 in0.0 mm 0.00 in/hr0.0 mm/hr 0.00 in0.0 mm
04:45 AM 12.4°F-10.9°C 7.7°F-13.5°C 81% 2.0 mph SW3.2 kmh SW 18.0 mph29.0 kmh 30.06 in1017.9 mb 0.00 in0.0 mm 0.00 in/hr0.0 mm/hr 0.00 in0.0 mm
04:40 AM 12.3°F-10.9°C 7.3°F-13.7°C 80% 8.0 mph SW12.9 kmh SW 17.0 mph27.4 kmh 30.05 in1017.6 mb 0.00 in0.0 mm 0.00 in/hr0.0 mm/hr 0.00 in0.0 mm
04:35 AM 12.2°F-11.0°C 7.5°F-13.6°C 81% 9.0 mph W14.5 kmh W 18.0 mph29.0 kmh 30.05 in1017.6 mb 0.00 in0.0 mm 0.00 in/hr0.0 mm/hr 0.00 in0.0 mm
04:30 AM 12.2°F-11.0°C 7.5°F-13.6°C 81% 3.0 mph W4.8 kmh W 15.0 mph24.1 kmh 30.04 in1017.3 mb 0.00 in0.0 mm 0.00 in/hr0.0 mm/hr 0.00 in0.0 mm
04:25 AM 12.3°F-10.9°C 7.3°F-13.7°C 80% 9.0 mph SW14.5 kmh SW 16.0 mph25.7 kmh 30.04 in1017.3 mb 0.00 in0.0 mm 0.00 in/hr0.0 mm/hr 0.00 in0.0 mm
04:20 AM 12.4°F-10.9°C 7.1°F-13.8°C 79% 7.0 mph WNW11.3 kmh WNW 20.0 mph32.2 kmh 30.04 in1017.3 mb 0.00 in0.0 mm 0.00 in/hr0.0 mm/hr 0.00 in0.0 mm
04:15 AM 12.5°F-10.8°C 6.9°F-13.9°C 78% 9.0 mph W14.5 kmh W 24.0 mph38.6 kmh 30.03 in1016.9 mb 0.00 in0.0 mm 0.00 in/hr0.0 mm/hr 0.00 in0.0 mm
04:10 AM 12.7°F-10.7°C 6.3°F-14.3°C 75% 10.0 mph SW16.1 kmh SW 26.0 mph41.8 kmh 30.02 in1016.6 mb 0.00 in0.0 mm 0.00 in/hr0.0 mm/hr 0.00 in0.0 mm
04:05 AM 12.6°F-10.8°C 6.2°F-14.3°C 75% 11.0 mph WNW17.7 kmh WNW 23.0 mph37.0 kmh 30.02 in1016.6 mb 0.00 in0.0 mm 0.00 in/hr0.0 mm/hr 0.00 in0.0 mm
04:00 AM 12.8°F-10.7°C 5.8°F-14.6°C 73% 17.0 mph SW27.4 kmh SW 27.0 mph43.5 kmh 30.00 in1015.9 mb 0.00 in0.0 mm 0.00 in/hr0.0 mm/hr 0.00 in0.0 mm
03:55 AM 12.9°F-10.6°C 5.3°F-14.8°C 71% 20.0 mph W32.2 kmh W 33.0 mph53.1 kmh 30.00 in1015.9 mb 0.00 in0.0 mm 0.00 in/hr0.0 mm/hr 0.00 in0.0 mm
03:50 AM 12.9°F-10.6°C 4.9°F-15.1°C 70% 15.0 mph NW24.1 kmh NW 38.0 mph61.2 kmh 30.00 in1015.9 mb 0.00 in0.0 mm 0.00 in/hr0.0 mm/hr 0.00 in0.0 mm
03:45 AM 12.9°F-10.6°C 4.9°F-15.1°C 70% 10.0 mph WNW16.1 kmh WNW 26.0 mph41.8 kmh 29.99 in1015.6 mb 0.00 in0.0 mm 0.00 in/hr0.0 mm/hr 0.00 in0.0 mm
03:40 AM 12.9°F-10.6°C 4.9°F-15.1°C 70% 10.0 mph NW16.1 kmh NW 31.0 mph49.9 kmh 29.99 in1015.6 mb 0.00 in0.0 mm 0.00 in/hr0.0 mm/hr 0.00 in0.0 mm
03:35 AM 13.0°F-10.6°C 5.0°F-15.0°C 70% 7.0 mph WNW11.3 kmh WNW 27.0 mph43.5 kmh 29.99 in1015.6 mb 0.00 in0.0 mm 0.00 in/hr0.0 mm/hr 0.00 in0.0 mm
03:30 AM 12.9°F-10.6°C 4.9°F-15.1°C 70% 21.0 mph WSW33.8 kmh WSW 29.0 mph46.7 kmh 29.99 in1015.6 mb 0.00 in0.0 mm 0.00 in/hr0.0 mm/hr 0.00 in0.0 mm
03:25 AM 12.9°F-10.6°C 4.3°F-15.4°C 68% 12.0 mph WSW19.3 kmh WSW 30.0 mph48.3 kmh 29.99 in1015.6 mb 0.00 in0.0 mm 0.00 in/hr0.0 mm/hr 0.00 in0.0 mm
03:20 AM 13.0°F-10.6°C 4.1°F-15.5°C 67% 12.0 mph W19.3 kmh W 23.0 mph37.0 kmh 29.98 in1015.2 mb 0.00 in0.0 mm 0.00 in/hr0.0 mm/hr 0.00 in0.0 mm
03:15 AM 13.1°F-10.5°C 3.9°F-15.6°C 66% 10.0 mph WNW16.1 kmh WNW 28.0 mph45.1 kmh 29.98 in1015.2 mb 0.00 in0.0 mm 0.00 in/hr0.0 mm/hr 0.00 in0.0 mm
03:10 AM 13.0°F-10.6°C 3.8°F-15.7°C 66% 6.0 mph W9.7 kmh W 28.0 mph45.1 kmh 29.99 in1015.6 mb 0.00 in0.0 mm 0.00 in/hr0.0 mm/hr 0.00 in0.0 mm
03:05 AM 12.8°F-10.7°C 3.6°F-15.8°C 66% 15.0 mph WSW24.1 kmh WSW 30.0 mph48.3 kmh 29.98 in1015.2 mb 0.00 in0.0 mm 0.00 in/hr0.0 mm/hr 0.00 in0.0 mm
03:00 AM 12.8°F-10.7°C 3.9°F-15.6°C 67% 11.0 mph W17.7 kmh W 34.0 mph54.7 kmh 29.99 in1015.6 mb 0.00 in0.0 mm 0.00 in/hr0.0 mm/hr 0.00 in0.0 mm
02:55 AM 12.8°F-10.7°C 3.2°F-16.0°C 65% 16.0 mph NW25.7 kmh NW 38.0 mph61.2 kmh 29.99 in1015.6 mb 0.00 in0.0 mm 0.00 in/hr0.0 mm/hr 0.00 in0.0 mm
02:50 AM 13.0°F-10.6°C 3.1°F-16.1°C 64% 31.0 mph WNW49.9 kmh WNW 37.0 mph59.5 kmh 29.99 in1015.6 mb 0.00 in0.0 mm 0.00 in/hr0.0 mm/hr 0.00 in0.0 mm
02:45 AM 13.0°F-10.6°C 2.8°F-16.2°C 63% 9.0 mph S14.5 kmh S 40.0 mph64.4 kmh 29.98 in1015.2 mb 0.00 in0.0 mm 0.00 in/hr0.0 mm/hr 0.00 in0.0 mm
02:40 AM 13.0°F-10.6°C 2.8°F-16.2°C 63% 12.0 mph W19.3 kmh W 38.0 mph61.2 kmh 29.98 in1015.2 mb 0.00 in0.0 mm 0.00 in/hr0.0 mm/hr 0.00 in0.0 mm
02:35 AM 13.2°F-10.4°C 2.9°F-16.2°C 63% 15.0 mph W24.1 kmh W 47.0 mph75.6 kmh 29.99 in1015.6 mb 0.00 in0.0 mm 0.00 in/hr0.0 mm/hr 0.00 in0.0 mm
02:30 AM 13.2°F-10.4°C 2.6°F-16.3°C 62% 13.0 mph W20.9 kmh W 40.0 mph64.4 kmh 29.98 in1015.2 mb 0.00 in0.0 mm 0.00 in/hr0.0 mm/hr 0.00 in0.0 mm
02:25 AM 13.2°F-10.4°C 2.3°F-16.5°C 61% 24.0 mph W38.6 kmh W 38.0 mph61.2 kmh 29.97 in1014.9 mb 0.00 in0.0 mm 0.00 in/hr0.0 mm/hr 0.00 in0.0 mm
02:20 AM 13.2°F-10.4°C 2.6°F-16.3°C 62% 15.0 mph NW24.1 kmh NW 47.0 mph75.6 kmh 29.97 in1014.9 mb 0.00 in0.0 mm 0.00 in/hr0.0 mm/hr 0.00 in0.0 mm
02:15 AM 12.9°F-10.6°C 3.0°F-16.1°C 64% 23.0 mph W37.0 kmh W 33.0 mph53.1 kmh 29.97 in1014.9 mb 0.00 in0.0 mm 0.00 in/hr0.0 mm/hr 0.00 in0.0 mm
02:10 AM 13.0°F-10.6°C 2.8°F-16.2°C 63% 40.0 mph NW64.4 kmh NW 45.0 mph72.4 kmh 29.97 in1014.9 mb 0.00 in0.0 mm 0.00 in/hr0.0 mm/hr 0.00 in0.0 mm
02:05 AM 13.0°F-10.6°C 3.1°F-16.1°C 64% 18.0 mph W29.0 kmh W 37.0 mph59.5 kmh 29.97 in1014.9 mb 0.00 in0.0 mm 0.00 in/hr0.0 mm/hr 0.00 in0.0 mm
02:00 AM 13.0°F-10.6°C 3.1°F-16.1°C 64% 28.0 mph WSW45.1 kmh WSW 45.0 mph72.4 kmh 29.98 in1015.2 mb 0.00 in0.0 mm 0.00 in/hr0.0 mm/hr 0.00 in0.0 mm
01:55 AM 12.9°F-10.6°C 2.7°F-16.3°C 63% 21.0 mph WNW33.8 kmh WNW 39.0 mph62.8 kmh 29.96 in1014.6 mb 0.00 in0.0 mm 0.00 in/hr0.0 mm/hr 0.00 in0.0 mm
01:50 AM 13.0°F-10.6°C 2.8°F-16.2°C 63% 19.0 mph W30.6 kmh W 38.0 mph61.2 kmh 29.96 in1014.6 mb 0.00 in0.0 mm 0.00 in/hr0.0 mm/hr 0.00 in0.0 mm
01:45 AM 13.0°F-10.6°C 2.8°F-16.2°C 63% 9.0 mph W14.5 kmh W 39.0 mph62.8 kmh 29.96 in1014.6 mb 0.00 in0.0 mm 0.00 in/hr0.0 mm/hr 0.00 in0.0 mm
01:40 AM 12.8°F-10.7°C 2.9°F-16.2°C 64% 29.0 mph NW46.7 kmh NW 48.0 mph77.2 kmh 29.96 in1014.6 mb 0.00 in0.0 mm 0.00 in/hr0.0 mm/hr 0.00 in0.0 mm
01:35 AM 12.5°F-10.8°C 3.0°F-16.1°C 65% 17.0 mph NW27.4 kmh NW 39.0 mph62.8 kmh 29.95 in1014.2 mb 0.00 in0.0 mm 0.00 in/hr0.0 mm/hr 0.00 in0.0 mm
01:30 AM 12.5°F-10.8°C 3.3°F-15.9°C 66% 27.0 mph WSW43.5 kmh WSW 48.0 mph77.2 kmh 29.95 in1014.2 mb 0.00 in0.0 mm 0.00 in/hr0.0 mm/hr 0.00 in0.0 mm
01:25 AM 12.6°F-10.8°C 2.7°F-16.3°C 64% 20.0 mph WNW32.2 kmh WNW 48.0 mph77.2 kmh 29.95 in1014.2 mb 0.00 in0.0 mm 0.00 in/hr0.0 mm/hr 0.00 in0.0 mm
01:20 AM 12.4°F-10.9°C 3.2°F-16.0°C 66% 35.0 mph NW56.3 kmh NW 42.0 mph67.6 kmh 29.94 in1013.9 mb 0.00 in0.0 mm 0.00 in/hr0.0 mm/hr 0.00 in0.0 mm
01:15 AM 12.2°F-11.0°C 3.0°F-16.1°C 66% 15.0 mph WSW24.1 kmh WSW 46.0 mph74.0 kmh 29.93 in1013.5 mb 0.00 in0.0 mm 0.00 in/hr0.0 mm/hr 0.00 in0.0 mm
01:10 AM 12.2°F-11.0°C 3.3°F-15.9°C 67% 35.0 mph NNW56.3 kmh NNW 47.0 mph75.6 kmh 29.94 in1013.9 mb 0.00 in0.0 mm 0.00 in/hr0.0 mm/hr 0.00 in0.0 mm
01:05 AM 12.0°F-11.1°C 3.8°F-15.7°C 69% 29.0 mph W46.7 kmh W 42.0 mph67.6 kmh 29.94 in1013.9 mb 0.00 in0.0 mm 0.00 in/hr0.0 mm/hr 0.00 in0.0 mm
01:00 AM 11.8°F-11.2°C 3.9°F-15.6°C 70% 17.0 mph WNW27.4 kmh WNW 39.0 mph62.8 kmh 29.94 in1013.9 mb 0.00 in0.0 mm 0.00 in/hr0.0 mm/hr 0.00 in0.0 mm
12:55 AM 11.6°F-11.3°C 4.0°F-15.6°C 71% 11.0 mph W17.7 kmh W 37.0 mph59.5 kmh 29.94 in1013.9 mb 0.00 in0.0 mm 0.00 in/hr0.0 mm/hr 0.00 in0.0 mm
12:50 AM 11.8°F-11.2°C 3.9°F-15.6°C 70% 13.0 mph WNW20.9 kmh WNW 38.0 mph61.2 kmh 29.93 in1013.5 mb 0.00 in0.0 mm 0.00 in/hr0.0 mm/hr 0.00 in0.0 mm
12:45 AM 12.1°F-11.1°C 3.2°F-16.0°C 67% 24.0 mph NW38.6 kmh NW 43.0 mph69.2 kmh 29.95 in1014.2 mb 0.00 in0.0 mm 0.00 in/hr0.0 mm/hr 0.00 in0.0 mm
12:40 AM 12.0°F-11.1°C 2.8°F-16.2°C 66% 4.0 mph W6.4 kmh W 31.0 mph49.9 kmh 29.95 in1014.2 mb 0.00 in0.0 mm 0.00 in/hr0.0 mm/hr 0.00 in0.0 mm
12:35 AM 12.3°F-10.9°C 2.1°F-16.6°C 63% 29.0 mph WNW46.7 kmh WNW 36.0 mph57.9 kmh 29.95 in1014.2 mb 0.00 in0.0 mm 0.00 in/hr0.0 mm/hr 0.00 in0.0 mm
12:30 AM 12.3°F-10.9°C 1.8°F-16.8°C 62% 4.0 mph SSW6.4 kmh SSW 25.0 mph40.2 kmh 29.95 in1014.2 mb 0.00 in0.0 mm 0.00 in/hr0.0 mm/hr 0.00 in0.0 mm
12:25 AM 12.2°F-11.0°C 1.7°F-16.8°C 62% 7.0 mph WNW11.3 kmh WNW 47.0 mph75.6 kmh 29.96 in1014.6 mb 0.00 in0.0 mm 0.00 in/hr0.0 mm/hr 0.00 in0.0 mm
12:20 AM 12.2°F-11.0°C 1.7°F-16.8°C 62% 23.0 mph NW37.0 kmh NW 47.0 mph75.6 kmh 29.96 in1014.6 mb 0.00 in0.0 mm 0.00 in/hr0.0 mm/hr 0.00 in0.0 mm
12:15 AM 12.1°F-11.1°C 1.6°F-16.9°C 62% 17.0 mph W27.4 kmh W 34.0 mph54.7 kmh 29.97 in1014.9 mb 0.00 in0.0 mm 0.00 in/hr0.0 mm/hr 0.00 in0.0 mm
12:10 AM 12.0°F-11.1°C 2.1°F-16.6°C 64% 14.0 mph NNW22.5 kmh NNW 31.0 mph49.9 kmh 29.96 in1014.6 mb 0.00 in0.0 mm 0.00 in/hr0.0 mm/hr 0.00 in0.0 mm
12:05 AM 11.9°F-11.2°C 2.0°F-16.7°C 64% 18.0 mph WSW29.0 kmh WSW 23.0 mph37.0 kmh 29.98 in1015.2 mb 0.00 in0.0 mm 0.00 in/hr0.0 mm/hr 0.00 in0.0 mm
12:00 AM 11.8°F-11.2°C 2.6°F-16.3°C 66% 9.0 mph N14.5 kmh N 12.0 mph19.3 kmh 29.98 in1015.2 mb 0.00 in0.0 mm 0.00 in/hr0.0 mm/hr 0.00 in0.0 mm